Terminal Aerodrome Forecast
Issued by NWS Dodge City, KS

Home | Current Version | Previous Version | Graphics & Text | Print | Product List | Glossary Off
Versions: 1 2 3 4 5 6 7 8 9 10 11 12 13 14

000
FTUS43 KDDC 112320
TAFDDC
TAF
KDDC 112320Z 1200/1224 36017G27KT P6SM SCT200
     FM120100 34009KT P6SM SKC
     FM121200 27009KT P6SM SKC
     FM121500 27012G22KT P6SM SKC
     FM122200 23007KT P6SM SKC=

USA.gov is the U.S. government's official web portal to all federal, state and local government web resources and services.